createdAt,value
2022-12-31T00:01:28.592Z,0.08
2022-12-31T00:03:58.732Z,0.07
2022-12-31T00:06:29.624Z,0.05
2022-12-31T00:09:06.295Z,0.04
2022-12-31T00:11:36.440Z,0.06
2022-12-31T00:14:05.877Z,0.07
2022-12-31T00:16:37.659Z,0.11
2022-12-31T00:19:08.385Z,0.13
2022-12-31T00:21:38.358Z,0.13
2022-12-31T00:24:09.795Z,0.16
2022-12-31T00:26:39.038Z,0.16
2022-12-31T00:29:08.053Z,0.15
2022-12-31T00:31:39.487Z,0.16
2022-12-31T00:34:09.134Z,0.18
2022-12-31T00:36:40.429Z,0.19
2022-12-31T00:39:12.231Z,0.18
2022-12-31T00:41:43.491Z,0.18
2022-12-31T00:44:13.332Z,0.15
2022-12-31T00:49:10.996Z,0.16
2022-12-31T00:51:40.031Z,0.12
2022-12-31T00:54:10.488Z,0.11
2022-12-31T00:56:39.556Z,0.06
2022-12-31T00:59:08.506Z,0.05
2022-12-31T01:01:39.976Z,0.04
2022-12-31T01:04:12.225Z,0.01
2022-12-31T01:06:41.389Z,-0.06
2022-12-31T01:09:12.922Z,-0.08
2022-12-31T01:11:42.573Z,-0.10
2022-12-31T01:14:14.504Z,-0.10
2022-12-31T01:16:47.748Z,-0.11
2022-12-31T01:19:20.498Z,-0.15
2022-12-31T01:21:51.253Z,-0.22
2022-12-31T01:24:22.329Z,-0.29
2022-12-31T01:26:52.158Z,-0.36
2022-12-31T01:29:21.208Z,-0.39
2022-12-31T01:31:50.457Z,-0.45
2022-12-31T01:34:19.471Z,-0.52
2022-12-31T01:36:48.712Z,-0.55
2022-12-31T01:39:17.798Z,-0.61
2022-12-31T01:41:49.318Z,-0.68
2022-12-31T01:44:51.508Z,-0.73
2022-12-31T01:47:30.386Z,-0.74
2022-12-31T01:50:03.875Z,-0.77
2022-12-31T01:52:38.060Z,-0.79
2022-12-31T01:55:14.690Z,-0.82
2022-12-31T01:57:47.079Z,-0.84
2022-12-31T02:00:16.849Z,-0.84
2022-12-31T02:02:46.448Z,-0.88
2022-12-31T02:05:21.585Z,-0.90
2022-12-31T02:07:51.448Z,-0.90
2022-12-31T02:10:20.469Z,-0.93
2022-12-31T02:12:51.386Z,-0.93
2022-12-31T02:15:24.683Z,-0.94
2022-12-31T02:18:01.965Z,-0.92
2022-12-31T02:21:04.079Z,-0.92
2022-12-31T02:24:23.484Z,-0.92
2022-12-31T02:27:00.760Z,-0.93
2022-12-31T02:30:11.345Z,-0.91
2022-12-31T02:32:56.383Z,-0.92
2022-12-31T02:35:30.813Z,-0.94
2022-12-31T02:38:07.089Z,-0.92
2022-12-31T02:40:38.176Z,-0.90
2022-12-31T02:43:07.893Z,-0.91
2022-12-31T02:45:40.618Z,-0.91
2022-12-31T02:48:24.680Z,-0.95
2022-12-31T02:51:01.732Z,-0.95
2022-12-31T02:53:54.787Z,-0.94
2022-12-31T02:56:30.890Z,-0.95
2022-12-31T02:59:20.565Z,-0.92
2022-12-31T03:02:15.539Z,-0.90
2022-12-31T03:04:47.958Z,-0.89
2022-12-31T03:07:21.238Z,-0.92
2022-12-31T03:09:50.446Z,-0.91
2022-12-31T03:12:38.691Z,-0.90
2022-12-31T03:15:20.308Z,-0.89
2022-12-31T03:17:57.524Z,-0.89
2022-12-31T03:20:48.622Z,-0.87
2022-12-31T03:23:21.715Z,-0.86
2022-12-31T03:25:49.862Z,-0.85
2022-12-31T03:28:21.044Z,-0.86
2022-12-31T03:30:52.075Z,-0.86
2022-12-31T03:33:23.917Z,-0.86
2022-12-31T03:35:53.923Z,-0.80
2022-12-31T03:38:23.236Z,-0.80
2022-12-31T03:40:54.292Z,-0.81
2022-12-31T03:43:23.288Z,-0.82
2022-12-31T03:45:53.593Z,-0.84
2022-12-31T03:48:25.142Z,-0.85
2022-12-31T03:50:54.361Z,-0.86
2022-12-31T03:53:24.354Z,-0.81
2022-12-31T03:55:53.571Z,-0.81
2022-12-31T03:58:23.287Z,-0.79
2022-12-31T04:00:52.511Z,-0.84
2022-12-31T04:03:21.654Z,-0.90
2022-12-31T04:05:56.545Z,-0.92
2022-12-31T04:08:26.098Z,-0.96
2022-12-31T04:10:55.184Z,-0.95
2022-12-31T04:13:24.275Z,-0.94
2022-12-31T04:15:53.381Z,-0.90
2022-12-31T04:18:22.374Z,-0.88
2022-12-31T04:20:51.482Z,-0.88
2022-12-31T04:23:21.914Z,-0.86
2022-12-31T04:25:50.985Z,-0.87
2022-12-31T04:28:19.971Z,-0.87
2022-12-31T04:30:48.962Z,-0.89
2022-12-31T04:33:18.840Z,-0.89
2022-12-31T04:35:47.995Z,-0.91
2022-12-31T04:38:17.154Z,-0.93
2022-12-31T04:41:01.804Z,-0.94
2022-12-31T04:43:30.914Z,-0.94
2022-12-31T04:46:00.139Z,-0.92
2022-12-31T04:48:29.194Z,-0.93
2022-12-31T04:50:58.225Z,-0.95
2022-12-31T04:53:27.313Z,-0.96
2022-12-31T04:55:57.852Z,-0.97
2022-12-31T04:58:26.992Z,-0.99
2022-12-31T05:00:56.731Z,-0.96
2022-12-31T05:03:27.445Z,-0.95
2022-12-31T05:06:02.928Z,-0.93
2022-12-31T05:08:32.603Z,-0.94
2022-12-31T05:11:03.155Z,-0.92
2022-12-31T05:13:33.473Z,-0.94
2022-12-31T05:16:03.653Z,-0.92
2022-12-31T05:18:33.430Z,-0.89
2022-12-31T05:21:02.540Z,-0.91
2022-12-31T05:23:31.655Z,-0.91
2022-12-31T05:26:02.507Z,-0.91
2022-12-31T05:28:32.765Z,-0.93
2022-12-31T05:31:01.877Z,-0.92
2022-12-31T05:33:31.202Z,-0.92
2022-12-31T05:36:00.242Z,-0.90
2022-12-31T05:38:29.401Z,-0.92
2022-12-31T05:41:04.921Z,-0.89
2022-12-31T05:43:34.395Z,-0.89
2022-12-31T05:46:04.611Z,-0.89
2022-12-31T05:48:33.933Z,-0.91
2022-12-31T05:51:03.014Z,-0.87
2022-12-31T05:53:31.960Z,-0.89
2022-12-31T05:56:01.039Z,-0.88
2022-12-31T05:58:31.502Z,-0.87
2022-12-31T06:01:00.561Z,-0.89
2022-12-31T06:03:29.687Z,-0.85
2022-12-31T06:05:58.681Z,-0.83
2022-12-31T06:08:27.621Z,-0.84
2022-12-31T06:10:56.772Z,-0.83
2022-12-31T06:13:25.861Z,-0.84
2022-12-31T06:15:56.354Z,-0.84
2022-12-31T06:18:25.537Z,-0.85
2022-12-31T06:20:54.941Z,-0.81
2022-12-31T06:23:23.879Z,-0.84
2022-12-31T06:25:53.054Z,-0.85
2022-12-31T06:28:22.208Z,-0.84
2022-12-31T06:30:51.224Z,-0.83
2022-12-31T06:33:21.762Z,-0.76
2022-12-31T06:35:50.787Z,-0.82
2022-12-31T06:38:19.771Z,-0.78
2022-12-31T06:40:48.781Z,-0.80
2022-12-31T06:43:17.878Z,-0.82
2022-12-31T06:45:46.960Z,-0.78
2022-12-31T06:48:16.367Z,-0.78
2022-12-31T06:50:46.680Z,-0.76
2022-12-31T06:53:15.732Z,-0.79
2022-12-31T06:55:45.549Z,-0.80
2022-12-31T06:58:15.726Z,-0.72
2022-12-31T07:00:55.223Z,-0.70
2022-12-31T07:03:35.192Z,-0.69
2022-12-31T07:06:12.045Z,-0.67
2022-12-31T07:08:51.253Z,-0.62
2022-12-31T07:11:23.878Z,-0.63
2022-12-31T07:14:08.451Z,-0.59
2022-12-31T07:16:54.376Z,-0.58
2022-12-31T07:19:30.554Z,-0.51
2022-12-31T07:22:00.897Z,-0.52
2022-12-31T07:24:30.376Z,-0.57
2022-12-31T07:27:11.082Z,-0.52
2022-12-31T07:29:56.400Z,-0.52
2022-12-31T07:32:40.113Z,-0.51
2022-12-31T07:35:18.488Z,-0.49
2022-12-31T07:38:01.167Z,-0.48
2022-12-31T07:40:39.764Z,-0.48
2022-12-31T07:43:16.810Z,-0.48
2022-12-31T07:45:52.336Z,-0.48
2022-12-31T07:48:26.298Z,-0.46
2022-12-31T07:50:57.464Z,-0.48
2022-12-31T07:53:29.144Z,-0.44
2022-12-31T07:56:01.141Z,-0.43
2022-12-31T07:58:42.083Z,-0.36
2022-12-31T08:01:13.847Z,-0.36
2022-12-31T08:03:53.089Z,-0.35
2022-12-31T08:06:35.123Z,-0.31
2022-12-31T08:09:12.853Z,-0.35
2022-12-31T08:11:47.938Z,-0.30
2022-12-31T08:14:17.649Z,-0.28
2022-12-31T08:16:47.099Z,-0.23
2022-12-31T08:19:24.972Z,-0.19
2022-12-31T08:22:08.850Z,-0.13
2022-12-31T08:24:51.517Z,-0.01
2022-12-31T08:27:30.216Z,0.03
2022-12-31T08:30:08.762Z,0.08
2022-12-31T08:32:44.431Z,0.12
2022-12-31T08:35:23.640Z,0.20
2022-12-31T08:38:01.839Z,0.28
2022-12-31T08:40:39.774Z,0.26
2022-12-31T08:43:22.304Z,0.28
2022-12-31T08:45:53.491Z,0.22
2022-12-31T08:48:31.282Z,0.20
2022-12-31T08:51:00.768Z,0.30
2022-12-31T08:53:30.235Z,0.28
2022-12-31T08:56:06.431Z,0.28
2022-12-31T08:58:47.939Z,0.27
2022-12-31T09:01:22.322Z,0.33
2022-12-31T09:04:09.286Z,0.36
2022-12-31T09:06:45.374Z,0.28
2022-12-31T09:09:23.513Z,0.25
2022-12-31T09:12:01.887Z,0.18
2022-12-31T09:14:44.336Z,0.06
2022-12-31T09:17:33.449Z,0.23
2022-12-31T09:20:06.271Z,0.27
2022-12-31T09:22:35.935Z,0.24
2022-12-31T09:25:05.426Z,0.28
2022-12-31T09:27:43.775Z,0.33
2022-12-31T09:30:16.359Z,0.34
2022-12-31T09:33:00.559Z,0.34
2022-12-31T09:35:38.210Z,0.42
2022-12-31T09:38:16.393Z,0.49
2022-12-31T09:40:58.710Z,0.46
2022-12-31T09:44:15.871Z,0.55
2022-12-31T09:47:33.208Z,0.53
2022-12-31T09:50:22.492Z,0.59
2022-12-31T09:53:07.040Z,0.54
2022-12-31T09:55:41.359Z,0.52
2022-12-31T09:58:28.463Z,0.46
2022-12-31T10:01:04.997Z,0.41
2022-12-31T10:03:53.369Z,0.31
2022-12-31T10:06:29.607Z,0.23
2022-12-31T10:09:07.120Z,0.27
2022-12-31T10:12:04.025Z,0.26
2022-12-31T10:14:50.519Z,0.30
2022-12-31T10:17:31.206Z,0.33
2022-12-31T10:20:45.485Z,0.39
2022-12-31T10:23:28.416Z,0.44
2022-12-31T10:26:18.937Z,0.48
2022-12-31T10:28:55.428Z,0.43
2022-12-31T10:31:48.449Z,0.41
2022-12-31T10:34:23.864Z,0.36
2022-12-31T10:36:59.564Z,0.43
2022-12-31T10:39:49.375Z,0.58
2022-12-31T10:42:37.821Z,0.78
2022-12-31T10:45:31.896Z,0.87
2022-12-31T10:48:38.010Z,0.94
2022-12-31T10:51:44.733Z,0.84
2022-12-31T10:54:53.411Z,0.75
2022-12-31T10:58:00.307Z,0.61
2022-12-31T11:00:39.032Z,0.61
2022-12-31T11:03:47.329Z,0.55
2022-12-31T11:07:01.567Z,0.54
2022-12-31T11:10:06.843Z,0.47
2022-12-31T11:13:01.569Z,0.45
2022-12-31T11:15:50.425Z,0.43
2022-12-31T11:18:30.887Z,0.42
2022-12-31T11:21:28.194Z,0.51
2022-12-31T11:24:07.365Z,0.52
2022-12-31T11:26:48.672Z,0.59
2022-12-31T11:29:38.802Z,0.59
2022-12-31T11:32:19.602Z,0.61
2022-12-31T11:35:13.503Z,0.63
2022-12-31T11:37:48.686Z,0.58
2022-12-31T11:40:33.565Z,0.54
2022-12-31T11:43:09.783Z,0.53
2022-12-31T11:46:03.591Z,0.51
2022-12-31T11:48:38.253Z,0.48
2022-12-31T11:51:24.058Z,0.47
2022-12-31T11:54:14.746Z,0.49
2022-12-31T11:57:01.487Z,0.44
2022-12-31T11:59:30.495Z,0.40
2022-12-31T12:02:05.927Z,0.41
2022-12-31T12:04:34.581Z,0.36
2022-12-31T12:07:03.632Z,0.34
2022-12-31T12:09:35.799Z,0.31
2022-12-31T12:12:06.987Z,0.35
2022-12-31T12:14:38.334Z,0.37
2022-12-31T12:17:15.172Z,0.39
2022-12-31T12:19:46.490Z,0.39
2022-12-31T12:22:22.490Z,0.37
2022-12-31T12:24:58.179Z,0.34
2022-12-31T12:27:30.830Z,0.36
2022-12-31T12:29:59.943Z,0.37
2022-12-31T12:32:30.594Z,0.35
2022-12-31T12:35:00.243Z,0.35
2022-12-31T12:37:33.351Z,0.34
2022-12-31T12:40:05.022Z,0.33
2022-12-31T12:42:34.207Z,0.36
2022-12-31T12:45:06.303Z,0.34
2022-12-31T12:47:36.962Z,0.32
2022-12-31T12:50:07.791Z,0.37
2022-12-31T12:53:01.218Z,0.36
2022-12-31T12:55:42.253Z,0.34
2022-12-31T12:58:23.315Z,0.32
2022-12-31T13:01:05.471Z,0.31
2022-12-31T13:07:17.938Z,0.32
2022-12-31T13:10:18.973Z,0.31
2022-12-31T13:15:53.880Z,0.27
2022-12-31T13:18:38.457Z,0.23
2022-12-31T13:21:21.165Z,0.29
2022-12-31T13:23:56.549Z,0.27
2022-12-31T13:26:33.150Z,0.23
2022-12-31T13:29:05.672Z,0.23
2022-12-31T13:31:37.826Z,0.17
2022-12-31T13:34:12.386Z,0.13
2022-12-31T13:36:43.797Z,0.12
2022-12-31T13:39:20.571Z,0.13
2022-12-31T13:41:56.597Z,0.08
2022-12-31T13:44:30.552Z,0.06
2022-12-31T13:47:05.888Z,0.05
2022-12-31T13:49:38.571Z,0.07
2022-12-31T13:52:23.177Z,0.03
2022-12-31T13:54:59.759Z,-0.08
2022-12-31T13:57:40.459Z,-0.13
2022-12-31T14:00:21.572Z,-0.11
2022-12-31T14:02:59.995Z,-0.11
2022-12-31T14:05:35.708Z,-0.09
2022-12-31T14:08:07.354Z,-0.08
2022-12-31T14:10:55.865Z,-0.02
2022-12-31T14:13:57.579Z,0.01
2022-12-31T14:16:36.155Z,0.08
2022-12-31T14:19:15.383Z,0.10
2022-12-31T14:21:50.299Z,0.15
2022-12-31T14:24:33.151Z,0.14
2022-12-31T14:27:09.957Z,0.15
2022-12-31T14:29:43.982Z,0.15
2022-12-31T14:32:36.752Z,0.18
2022-12-31T14:35:24.095Z,0.14
2022-12-31T14:38:00.587Z,0.16
2022-12-31T14:40:41.122Z,0.18
2022-12-31T14:43:26.335Z,0.18
2022-12-31T14:46:10.520Z,0.19
2022-12-31T14:48:49.592Z,0.20
2022-12-31T14:51:18.732Z,0.19
2022-12-31T14:53:54.597Z,0.63
2022-12-31T14:56:32.271Z,0.84
2022-12-31T14:59:04.027Z,1.00
2022-12-31T15:01:33.884Z,1.10
2022-12-31T15:04:02.939Z,0.88
2022-12-31T15:06:51.747Z,0.70
2022-12-31T15:09:53.869Z,0.88
2022-12-31T15:12:40.222Z,0.63
2022-12-31T15:15:24.321Z,0.61
2022-12-31T15:18:04.747Z,0.56
2022-12-31T15:20:50.514Z,0.46
2022-12-31T15:23:24.459Z,0.37
2022-12-31T15:25:59.429Z,0.35
2022-12-31T15:28:34.064Z,0.34
2022-12-31T15:31:13.084Z,0.32
2022-12-31T15:33:58.037Z,0.26
2022-12-31T15:36:28.788Z,0.26
2022-12-31T15:39:23.299Z,0.27
2022-12-31T15:42:36.317Z,0.26
2022-12-31T15:44:49.972Z,0.20
2022-12-31T15:47:30.674Z,0.19
2022-12-31T15:50:03.972Z,0.18
2022-12-31T15:52:41.303Z,0.18
2022-12-31T15:55:21.856Z,0.17
2022-12-31T15:57:51.805Z,0.13
2022-12-31T16:00:23.210Z,0.12
2022-12-31T16:02:55.993Z,0.09
2022-12-31T16:05:27.207Z,0.04
2022-12-31T16:07:57.526Z,0.03
2022-12-31T16:10:30.424Z,0.03
2022-12-31T16:13:00.963Z,0.05
2022-12-31T16:15:32.900Z,0.07
2022-12-31T16:18:06.294Z,0.04
2022-12-31T16:20:42.195Z,0.05
2022-12-31T16:23:22.578Z,0.05
2022-12-31T16:25:53.486Z,0.06
2022-12-31T16:28:26.531Z,0.08
2022-12-31T16:31:01.868Z,0.05
2022-12-31T16:33:33.402Z,0.07
2022-12-31T16:36:05.324Z,0.42
2022-12-31T16:38:36.181Z,0.33
2022-12-31T16:41:19.684Z,0.24
2022-12-31T16:43:50.667Z,0.18
2022-12-31T16:46:23.100Z,0.13
2022-12-31T16:48:58.002Z,0.12
2022-12-31T16:51:31.158Z,0.07
2022-12-31T16:54:02.891Z,0.04
2022-12-31T16:56:35.625Z,0.04
2022-12-31T16:59:08.690Z,0.06
2022-12-31T17:01:38.911Z,0.11
2022-12-31T17:04:12.556Z,0.04
2022-12-31T17:06:41.638Z,0.02
2022-12-31T17:09:20.698Z,-0.01
2022-12-31T17:11:54.126Z,-0.01
2022-12-31T17:14:30.749Z,-0.05
2022-12-31T17:17:03.498Z,-0.04
2022-12-31T17:19:46.172Z,0.01
2022-12-31T17:22:31.539Z,0.05
2022-12-31T17:25:05.607Z,0.06
2022-12-31T17:27:35.907Z,-0.02
2022-12-31T17:30:24.597Z,0.00
2022-12-31T17:32:54.110Z,-0.04
2022-12-31T17:35:32.111Z,-0.07
2022-12-31T17:38:30.404Z,-0.08
2022-12-31T17:41:15.174Z,-0.07
2022-12-31T17:43:44.575Z,0.00
2022-12-31T17:46:16.328Z,-0.02
2022-12-31T17:48:47.180Z,-0.03
2022-12-31T17:51:17.672Z,-0.04
2022-12-31T17:53:53.611Z,0.03
2022-12-31T17:56:22.927Z,0.14
2022-12-31T17:58:53.985Z,0.07
2022-12-31T18:01:24.566Z,0.05
2022-12-31T18:03:53.799Z,0.04
2022-12-31T18:06:24.771Z,-0.05
2022-12-31T18:08:53.944Z,-0.08
2022-12-31T18:11:25.026Z,-0.11
2022-12-31T18:13:55.578Z,-0.11
2022-12-31T18:16:24.989Z,-0.14
2022-12-31T18:19:01.506Z,-0.17
2022-12-31T18:21:34.395Z,-0.13
2022-12-31T18:26:34.764Z,-0.13
2022-12-31T18:29:17.221Z,-0.18
2022-12-31T18:31:47.942Z,-0.17
2022-12-31T18:34:19.134Z,-0.18
2022-12-31T18:36:49.582Z,-0.14
2022-12-31T18:39:18.803Z,-0.16
2022-12-31T18:41:49.950Z,-0.17
2022-12-31T18:44:19.498Z,-0.18
2022-12-31T18:46:48.638Z,-0.18
2022-12-31T18:49:17.644Z,-0.11
2022-12-31T18:51:46.720Z,-0.16
2022-12-31T18:54:17.785Z,-0.18
2022-12-31T18:56:49.281Z,-0.19
2022-12-31T18:59:20.465Z,-0.20
2022-12-31T19:01:49.600Z,-0.22
2022-12-31T19:04:27.210Z,-0.28
2022-12-31T19:06:57.782Z,-0.30
2022-12-31T19:09:45.111Z,-0.28
2022-12-31T19:12:16.277Z,-0.32
2022-12-31T19:14:45.727Z,-0.34
2022-12-31T19:17:15.050Z,-0.31
2022-12-31T19:19:44.151Z,-0.30
2022-12-31T19:22:16.607Z,-0.30
2022-12-31T19:24:46.987Z,-0.32
2022-12-31T19:27:17.210Z,-0.31
2022-12-31T19:29:46.275Z,-0.30
2022-12-31T19:32:15.313Z,-0.26
2022-12-31T19:34:44.419Z,-0.26
2022-12-31T19:37:16.490Z,-0.26
2022-12-31T19:39:46.887Z,-0.23
2022-12-31T19:42:17.337Z,-0.25
2022-12-31T19:44:48.643Z,-0.24
2022-12-31T19:47:17.770Z,-0.26
2022-12-31T19:49:47.124Z,-0.22
2022-12-31T19:52:16.251Z,-0.17
2022-12-31T19:54:46.695Z,-0.26
2022-12-31T19:57:15.817Z,-0.31
2022-12-31T19:59:44.750Z,-0.38
2022-12-31T20:02:15.250Z,-0.47
2022-12-31T20:04:44.446Z,-0.55
2022-12-31T20:07:13.510Z,-0.58
2022-12-31T20:09:42.523Z,-0.72
2022-12-31T20:12:12.904Z,-0.84
2022-12-31T20:14:41.902Z,-0.95
2022-12-31T20:17:11.129Z,-1.13
2022-12-31T20:19:40.658Z,-1.11
2022-12-31T20:22:09.804Z,-0.97
2022-12-31T20:24:38.973Z,-0.91
2022-12-31T20:27:13.511Z,-0.98
2022-12-31T20:29:47.093Z,-1.04
2022-12-31T20:32:16.254Z,-1.07
2022-12-31T20:34:45.201Z,-0.98
2022-12-31T20:37:14.354Z,-1.06
2022-12-31T20:39:44.157Z,-1.08
2022-12-31T20:42:13.117Z,-1.14
2022-12-31T20:44:42.085Z,-1.26
2022-12-31T20:47:12.614Z,-1.25
2022-12-31T20:52:32.823Z,-1.05
2022-12-31T20:55:01.928Z,-0.92
2022-12-31T20:57:33.944Z,-0.87
2022-12-31T21:00:03.405Z,-0.79
2022-12-31T21:02:42.184Z,-0.60
2022-12-31T21:05:12.574Z,-0.60
2022-12-31T21:07:41.891Z,-0.58
2022-12-31T21:10:11.233Z,-0.37
2022-12-31T21:12:53.149Z,-0.38
2022-12-31T21:15:22.641Z,-0.46
2022-12-31T21:17:53.166Z,-0.52
2022-12-31T21:20:22.316Z,-0.56
2022-12-31T21:22:51.330Z,-0.56
2022-12-31T21:25:20.385Z,-0.53
2022-12-31T21:27:49.598Z,-0.51
2022-12-31T21:30:19.519Z,-0.50
2022-12-31T21:32:49.296Z,-0.51
2022-12-31T21:38:09.179Z,-0.53
2022-12-31T21:40:38.185Z,-0.54
2022-12-31T21:43:07.180Z,-0.47
2022-12-31T21:45:36.154Z,-0.48
2022-12-31T21:48:21.580Z,-0.48
2022-12-31T21:50:53.243Z,-0.50
2022-12-31T21:53:32.113Z,-0.52
2022-12-31T21:56:14.722Z,-0.56
2022-12-31T21:58:46.790Z,-0.53
2022-12-31T22:01:38.028Z,-0.53
2022-12-31T22:04:28.171Z,-0.57
2022-12-31T22:06:58.717Z,-0.54
2022-12-31T22:09:27.858Z,-0.55
2022-12-31T22:11:56.892Z,-0.56
2022-12-31T22:14:26.056Z,-0.58
2022-12-31T22:16:55.163Z,-0.58
2022-12-31T22:19:24.849Z,-0.56
2022-12-31T22:21:53.884Z,-0.57
2022-12-31T22:24:24.312Z,-0.57
2022-12-31T22:26:55.777Z,-0.55
2022-12-31T22:29:26.105Z,-0.57
2022-12-31T22:32:00.919Z,-0.58
2022-12-31T22:34:30.429Z,-0.58
2022-12-31T22:37:08.923Z,-0.61
2022-12-31T22:39:50.044Z,-0.60
2022-12-31T22:42:19.152Z,-0.61
2022-12-31T22:44:48.194Z,-0.61
2022-12-31T22:47:17.333Z,-0.59
2022-12-31T22:49:46.719Z,-0.56
2022-12-31T22:52:15.783Z,-0.48
2022-12-31T22:54:44.804Z,-0.53
2022-12-31T22:57:19.995Z,-0.55
2022-12-31T22:59:49.399Z,-0.54
2022-12-31T23:02:18.560Z,-0.56
2022-12-31T23:04:47.553Z,-0.56
2022-12-31T23:07:16.577Z,-0.58
2022-12-31T23:10:02.676Z,-0.59
2022-12-31T23:12:33.422Z,-0.59
2022-12-31T23:15:19.966Z,-0.56
2022-12-31T23:18:06.286Z,-0.57
2022-12-31T23:20:52.434Z,-0.57
2022-12-31T23:23:21.595Z,-0.54
2022-12-31T23:25:52.652Z,-0.56
2022-12-31T23:28:24.793Z,-0.54
2022-12-31T23:30:54.518Z,-0.54
2022-12-31T23:33:26.183Z,-0.52
2022-12-31T23:36:03.910Z,-0.52
2022-12-31T23:38:32.999Z,-0.55
2022-12-31T23:41:01.975Z,-0.52
2022-12-31T23:43:32.734Z,-0.51
2022-12-31T23:46:01.757Z,-0.50
2022-12-31T23:48:30.756Z,-0.49
2022-12-31T23:50:59.765Z,-0.47
2022-12-31T23:53:28.746Z,-0.47
2022-12-31T23:55:58.940Z,-0.46
2022-12-31T23:58:27.888Z,-0.46
